createdAt,value
2018-05-18T00:01:36.239Z,13.43
2018-05-18T00:04:05.315Z,14.77
2018-05-18T00:06:34.549Z,10.00
2018-05-18T00:09:03.392Z,15.27
2018-05-18T00:11:31.784Z,12.67
2018-05-18T00:14:00.132Z,15.07
2018-05-18T00:16:28.500Z,10.32
2018-05-18T00:18:56.779Z,10.10
2018-05-18T00:21:25.400Z,11.23
2018-05-18T00:23:53.837Z,9.80
2018-05-18T00:26:23.040Z,12.52
2018-05-18T00:28:52.054Z,8.90
2018-05-18T00:31:21.683Z,19.60
2018-05-18T00:33:50.020Z,14.80
2018-05-18T00:36:18.376Z,12.30
2018-05-18T00:38:47.642Z,10.40
2018-05-18T00:41:16.044Z,12.48
2018-05-18T00:43:44.430Z,9.97
2018-05-18T00:46:13.193Z,10.60
2018-05-18T00:48:41.501Z,9.63
2018-05-18T00:51:09.858Z,11.87
2018-05-18T00:53:38.245Z,13.90
2018-05-18T00:56:06.556Z,12.27
2018-05-18T00:58:34.846Z,14.23
2018-05-18T01:01:05.678Z,23.47
2018-05-18T01:03:35.355Z,13.20
2018-05-18T01:06:03.687Z,9.63
2018-05-18T01:08:32.114Z,13.83
2018-05-18T01:11:00.354Z,13.30
2018-05-18T01:13:28.661Z,14.30
2018-05-18T01:15:57.920Z,10.50
2018-05-18T01:18:26.182Z,14.13
2018-05-18T01:20:55.436Z,10.33
2018-05-18T01:23:24.379Z,15.70
2018-05-18T01:25:52.758Z,10.37
2018-05-18T01:28:21.067Z,14.30
2018-05-18T01:30:49.417Z,11.40
2018-05-18T01:33:17.718Z,9.23
2018-05-18T01:35:46.015Z,10.03
2018-05-18T01:38:14.347Z,9.80
2018-05-18T01:40:42.628Z,10.30
2018-05-18T01:43:10.931Z,14.63
2018-05-18T01:45:39.205Z,27.83
2018-05-18T01:48:07.522Z,8.00
2018-05-18T01:50:35.812Z,11.73
2018-05-18T01:53:04.793Z,8.48
2018-05-18T01:55:33.244Z,11.83
2018-05-18T01:58:01.577Z,11.47
2018-05-18T02:00:29.863Z,6.17
2018-05-18T02:02:58.141Z,11.13
2018-05-18T02:05:26.460Z,10.43
2018-05-18T02:07:54.822Z,8.90
2018-05-18T02:10:23.200Z,8.50
2018-05-18T02:12:51.478Z,10.73
2018-05-18T02:15:19.889Z,8.98
2018-05-18T02:17:48.147Z,11.83
2018-05-18T02:20:16.454Z,10.23
2018-05-18T02:22:44.747Z,15.13
2018-05-18T02:25:13.078Z,12.20
2018-05-18T02:27:41.372Z,11.07
2018-05-18T02:30:09.651Z,8.53
2018-05-18T02:32:37.939Z,11.90
2018-05-18T02:35:06.218Z,7.20
2018-05-18T02:37:34.522Z,12.63
2018-05-18T02:40:02.786Z,15.87
2018-05-18T02:42:32.333Z,10.30
2018-05-18T02:45:00.577Z,13.67
2018-05-18T02:47:28.855Z,8.30
2018-05-18T02:49:57.137Z,14.13
2018-05-18T02:52:25.434Z,10.77
2018-05-18T02:54:54.828Z,8.77
2018-05-18T02:57:23.171Z,10.47
2018-05-18T02:59:51.490Z,13.40
2018-05-18T03:02:19.928Z,9.10
2018-05-18T03:04:48.943Z,10.03
2018-05-18T03:07:17.253Z,7.85
2018-05-18T03:09:45.572Z,11.13
2018-05-18T03:12:14.402Z,11.10
2018-05-18T03:14:42.699Z,10.10
2018-05-18T03:17:10.986Z,9.50
2018-05-18T03:19:39.289Z,20.90
2018-05-18T03:22:07.624Z,8.90
2018-05-18T03:24:35.927Z,15.87
2018-05-18T03:27:04.881Z,9.83
2018-05-18T03:29:33.250Z,9.87
2018-05-18T03:32:01.573Z,10.23
2018-05-18T03:34:29.919Z,9.60
2018-05-18T03:36:58.420Z,10.50
2018-05-18T03:39:26.702Z,15.53
2018-05-18T03:41:55.649Z,12.30
2018-05-18T03:44:23.987Z,15.93
2018-05-18T03:46:52.317Z,8.73
2018-05-18T03:49:20.666Z,12.68
2018-05-18T03:51:49.007Z,16.37
2018-05-18T03:54:17.346Z,13.45
2018-05-18T03:56:45.615Z,11.63
2018-05-18T03:59:13.906Z,12.10
2018-05-18T04:01:54.042Z,6.97
2018-05-18T04:04:34.897Z,15.93
2018-05-18T04:07:15.845Z,10.55
2018-05-18T04:09:44.172Z,10.93
2018-05-18T04:12:12.497Z,10.63
2018-05-18T04:14:40.846Z,8.23
2018-05-18T04:17:09.142Z,13.13
2018-05-18T04:19:37.445Z,16.47
2018-05-18T04:22:05.794Z,10.60
2018-05-18T04:24:34.096Z,15.23
2018-05-18T04:27:02.434Z,11.70
2018-05-18T04:29:30.719Z,10.37
2018-05-18T04:31:59.132Z,13.00
2018-05-18T04:34:27.401Z,13.63
2018-05-18T04:36:55.720Z,13.37
2018-05-18T04:39:24.006Z,13.37
2018-05-18T04:41:52.310Z,11.50
2018-05-18T04:44:20.643Z,16.65
2018-05-18T04:46:48.978Z,44.73
2018-05-18T04:49:17.319Z,8.00
2018-05-18T04:51:45.595Z,13.30
2018-05-18T04:54:13.954Z,8.90
2018-05-18T04:56:42.232Z,11.38
2018-05-18T04:59:10.578Z,12.10
2018-05-18T05:01:38.902Z,15.07
2018-05-18T05:04:07.216Z,15.60
2018-05-18T05:06:35.490Z,21.97
2018-05-18T05:09:03.790Z,18.10
2018-05-18T05:11:32.074Z,19.43
2018-05-18T05:14:00.516Z,18.53
2018-05-18T05:16:28.782Z,22.90
2018-05-18T05:18:59.939Z,13.73
2018-05-18T05:21:28.218Z,25.12
2018-05-18T05:23:57.284Z,19.83
2018-05-18T05:26:25.551Z,13.73
2018-05-18T05:28:53.890Z,26.00
2018-05-18T05:31:22.210Z,20.07
2018-05-18T05:33:50.562Z,14.77
2018-05-18T05:36:18.931Z,25.42
2018-05-18T05:38:47.194Z,29.70
2018-05-18T05:41:15.771Z,21.97
2018-05-18T05:43:44.059Z,34.03
2018-05-18T05:46:12.398Z,24.80
2018-05-18T05:48:40.814Z,32.93
2018-05-18T05:51:09.399Z,24.80
2018-05-18T05:53:37.740Z,24.23
2018-05-18T05:56:06.139Z,25.57
2018-05-18T05:58:34.530Z,37.93
2018-05-18T06:01:02.776Z,25.43
2018-05-18T06:03:31.339Z,28.23
2018-05-18T06:06:00.454Z,32.22
2018-05-18T06:08:28.823Z,28.10
2018-05-18T06:10:57.183Z,32.67
2018-05-18T06:13:25.586Z,32.30
2018-05-18T06:15:53.915Z,24.63
2018-05-18T06:18:22.236Z,29.65
2018-05-18T06:20:51.428Z,27.60
2018-05-18T06:23:19.825Z,25.12
2018-05-18T06:25:48.430Z,32.57
2018-05-18T06:28:17.011Z,28.40
2018-05-18T06:30:45.331Z,24.17
2018-05-18T06:33:13.638Z,27.37
2018-05-18T06:35:41.960Z,29.87
2018-05-18T06:38:10.259Z,27.93
2018-05-18T06:40:38.581Z,32.53
2018-05-18T06:43:06.849Z,25.53
2018-05-18T06:45:35.217Z,34.07
2018-05-18T06:48:03.559Z,28.27
2018-05-18T06:50:32.230Z,30.80
2018-05-18T06:53:00.580Z,30.57
2018-05-18T06:55:29.744Z,29.33
2018-05-18T06:57:58.381Z,28.70
2018-05-18T07:00:27.786Z,32.97
2018-05-18T07:02:56.100Z,28.83
2018-05-18T07:05:24.589Z,30.00
2018-05-18T07:07:52.960Z,31.73
2018-05-18T07:10:21.401Z,29.17
2018-05-18T07:12:49.726Z,37.33
2018-05-18T07:15:18.003Z,29.87
2018-05-18T07:17:46.320Z,35.07
2018-05-18T07:20:16.300Z,31.55
2018-05-18T07:22:44.646Z,34.10
2018-05-18T07:25:13.110Z,40.07
2018-05-18T07:27:41.402Z,31.25
2018-05-18T07:30:09.797Z,30.08
2018-05-18T07:32:38.040Z,37.57
2018-05-18T07:35:06.331Z,30.35
2018-05-18T07:37:34.790Z,34.10
2018-05-18T07:40:03.121Z,37.23
2018-05-18T07:42:31.440Z,37.13
2018-05-18T07:44:59.737Z,32.37
2018-05-18T07:47:28.113Z,33.30
2018-05-18T07:49:56.507Z,35.37
2018-05-18T07:52:24.803Z,38.53
2018-05-18T07:54:53.188Z,35.00
2018-05-18T07:57:21.539Z,40.53
2018-05-18T07:59:49.911Z,34.80
2018-05-18T08:02:19.982Z,33.30
2018-05-18T08:04:48.363Z,48.23
2018-05-18T08:07:16.669Z,43.65
2018-05-18T08:09:45.102Z,37.40
2018-05-18T08:12:14.091Z,29.90
2018-05-18T08:14:43.662Z,27.02
2018-05-18T08:17:12.208Z,28.17
2018-05-18T08:19:40.527Z,35.63
2018-05-18T08:22:08.858Z,34.53
2018-05-18T08:24:37.260Z,32.77
2018-05-18T08:27:17.358Z,26.77
2018-05-18T08:29:45.889Z,32.50
2018-05-18T08:32:14.217Z,39.20
2018-05-18T08:34:42.496Z,31.60
2018-05-18T08:37:10.815Z,33.10
2018-05-18T08:39:39.090Z,36.65
2018-05-18T08:42:07.408Z,39.70
2018-05-18T08:44:35.878Z,36.73
2018-05-18T08:47:05.496Z,32.43
2018-05-18T08:49:33.847Z,32.53
2018-05-18T08:52:03.109Z,28.93
2018-05-18T08:54:31.419Z,29.40
2018-05-18T08:56:59.732Z,30.97
2018-05-18T08:59:28.317Z,34.27
2018-05-18T09:01:56.917Z,29.37
2018-05-18T09:04:25.215Z,32.30
2018-05-18T09:06:53.629Z,27.17
2018-05-18T09:09:21.948Z,33.90
2018-05-18T09:11:50.352Z,34.10
2018-05-18T09:14:18.704Z,30.42
2018-05-18T09:16:47.040Z,27.63
2018-05-18T09:19:15.592Z,36.30
2018-05-18T09:21:43.872Z,29.23
2018-05-18T09:24:12.202Z,29.23
2018-05-18T09:26:41.420Z,33.03
2018-05-18T09:29:09.737Z,29.83
2018-05-18T09:31:38.103Z,24.90
2018-05-18T09:34:06.471Z,29.60
2018-05-18T09:36:34.709Z,25.73
2018-05-18T09:39:03.023Z,29.00
2018-05-18T09:41:31.294Z,26.77
2018-05-18T09:43:59.770Z,29.77
2018-05-18T09:46:28.144Z,29.70
2018-05-18T09:48:56.583Z,32.07
2018-05-18T09:51:24.936Z,27.17
2018-05-18T09:53:53.251Z,38.37
2018-05-18T09:56:22.331Z,37.47
2018-05-18T09:58:50.672Z,32.37
2018-05-18T10:01:19.334Z,29.30
2018-05-18T10:03:47.636Z,25.73
2018-05-18T10:06:16.036Z,33.90
2018-05-18T10:08:44.354Z,28.67
2018-05-18T10:11:12.763Z,34.40
2018-05-18T10:13:41.015Z,36.33
2018-05-18T10:16:10.227Z,35.17
2018-05-18T10:18:39.257Z,30.00
2018-05-18T10:21:07.502Z,31.47
2018-05-18T10:23:35.838Z,30.23
2018-05-18T10:26:05.064Z,39.57
2018-05-18T10:28:33.375Z,26.80
2018-05-18T10:31:02.434Z,41.73
2018-05-18T10:33:34.075Z,31.45
2018-05-18T10:36:02.611Z,29.43
2018-05-18T10:38:31.195Z,26.77
2018-05-18T10:40:59.629Z,25.30
2018-05-18T10:43:28.070Z,28.20
2018-05-18T10:45:57.014Z,31.20
2018-05-18T10:48:25.309Z,32.30
2018-05-18T10:50:53.659Z,26.23
2018-05-18T10:53:22.052Z,25.42
2018-05-18T10:55:50.460Z,27.87
2018-05-18T10:58:18.845Z,24.65
2018-05-18T11:00:47.203Z,33.13
2018-05-18T11:03:15.631Z,26.27
2018-05-18T11:05:43.954Z,30.47
2018-05-18T11:08:12.361Z,27.02
2018-05-18T11:10:40.641Z,26.00
2018-05-18T11:13:09.937Z,33.23
2018-05-18T11:15:38.267Z,28.60
2018-05-18T11:18:08.055Z,27.40
2018-05-18T11:20:37.074Z,25.63
2018-05-18T11:23:05.555Z,34.93
2018-05-18T11:25:33.910Z,29.33
2018-05-18T11:30:43.386Z,31.47
2018-05-18T11:33:11.781Z,31.25
2018-05-18T11:35:40.226Z,25.43
2018-05-18T11:38:08.519Z,27.23
2018-05-18T11:40:41.886Z,31.17
2018-05-18T11:43:10.223Z,27.70
2018-05-18T11:45:40.412Z,25.50
2018-05-18T11:48:09.189Z,28.90
2018-05-18T11:50:38.166Z,31.40
2018-05-18T11:53:06.819Z,29.67
2018-05-18T11:55:35.553Z,23.57
2018-05-18T11:58:04.168Z,25.80
2018-05-18T12:00:33.227Z,24.53
2018-05-18T12:03:01.986Z,21.17
2018-05-18T12:05:30.424Z,27.17
2018-05-18T12:08:00.496Z,27.70
2018-05-18T12:10:32.366Z,29.53
2018-05-18T12:13:02.476Z,27.97
2018-05-18T12:15:31.699Z,23.97
2018-05-18T12:18:04.307Z,27.03
2018-05-18T12:20:32.708Z,24.47
2018-05-18T12:23:01.657Z,25.50
2018-05-18T12:25:30.435Z,25.57
2018-05-18T12:27:59.911Z,18.00
2018-05-18T12:30:29.440Z,21.30
2018-05-18T12:32:58.578Z,20.33
2018-05-18T12:35:26.889Z,17.80
2018-05-18T12:37:55.208Z,20.60
2018-05-18T12:40:23.550Z,24.53
2018-05-18T12:42:51.921Z,27.62
2018-05-18T12:45:20.287Z,25.92
2018-05-18T12:47:48.656Z,27.20
2018-05-18T12:50:16.971Z,22.87
2018-05-18T12:52:45.288Z,26.77
2018-05-18T12:55:13.658Z,25.65
2018-05-18T12:57:42.004Z,24.20
2018-05-18T13:00:10.294Z,22.67
2018-05-18T13:02:38.678Z,26.80
2018-05-18T13:05:07.865Z,34.30
2018-05-18T13:07:36.231Z,25.47
2018-05-18T13:10:04.608Z,25.88
2018-05-18T13:12:33.230Z,24.73
2018-05-18T13:15:01.695Z,30.23
2018-05-18T13:17:30.029Z,28.63
2018-05-18T13:19:58.353Z,28.87
2018-05-18T13:22:26.716Z,27.58
2018-05-18T13:24:55.106Z,31.50
2018-05-18T13:27:23.439Z,26.70
2018-05-18T13:29:51.732Z,23.60
2018-05-18T13:32:20.126Z,25.67
2018-05-18T13:34:48.448Z,26.07
2018-05-18T13:37:16.775Z,27.13
2018-05-18T13:39:45.311Z,22.77
2018-05-18T13:42:13.651Z,28.12
2018-05-18T13:44:42.109Z,26.70
2018-05-18T13:47:10.418Z,25.77
2018-05-18T13:49:38.827Z,27.13
2018-05-18T13:52:07.230Z,29.25
2018-05-18T13:54:35.691Z,26.17
2018-05-18T13:57:04.124Z,27.50
2018-05-18T13:59:32.391Z,28.77
2018-05-18T14:02:00.682Z,30.03
2018-05-18T14:04:29.003Z,29.23
2018-05-18T14:06:57.294Z,27.60
2018-05-18T14:09:25.596Z,29.43
2018-05-18T14:11:53.893Z,24.73
2018-05-18T14:14:22.397Z,27.50
2018-05-18T14:16:50.636Z,29.73
2018-05-18T14:19:19.278Z,26.60
2018-05-18T14:21:47.635Z,24.33
2018-05-18T14:24:15.984Z,22.17
2018-05-18T14:26:44.306Z,27.23
2018-05-18T14:29:13.397Z,26.77
2018-05-18T14:31:41.725Z,22.70
2018-05-18T14:34:10.034Z,24.30
2018-05-18T14:36:38.356Z,23.77
2018-05-18T14:39:06.703Z,24.33
2018-05-18T14:41:35.019Z,27.80
2018-05-18T14:44:03.394Z,26.30
2018-05-18T14:46:31.870Z,26.93
2018-05-18T14:49:00.182Z,27.20
2018-05-18T14:51:28.500Z,27.03
2018-05-18T14:53:56.781Z,22.53
2018-05-18T14:56:26.118Z,22.43
2018-05-18T14:58:54.484Z,22.27
2018-05-18T15:01:22.812Z,26.43
2018-05-18T15:03:51.148Z,22.37
2018-05-18T15:06:19.484Z,23.70
2018-05-18T15:08:47.878Z,32.67
2018-05-18T15:11:16.421Z,20.87
2018-05-18T15:13:44.932Z,26.63
2018-05-18T15:16:13.297Z,21.30
2018-05-18T15:18:41.604Z,21.47
2018-05-18T15:21:09.915Z,19.77
2018-05-18T15:23:38.949Z,20.10
2018-05-18T15:26:07.226Z,20.23
2018-05-18T15:28:35.676Z,19.00
2018-05-18T15:31:03.978Z,20.13
2018-05-18T15:33:32.501Z,22.80
2018-05-18T15:36:00.911Z,17.47
2018-05-18T15:38:29.323Z,21.60
2018-05-18T15:40:59.456Z,23.37
2018-05-18T15:43:27.835Z,22.27
2018-05-18T15:46:05.715Z,25.80
2018-05-18T15:48:34.101Z,29.00
2018-05-18T15:51:02.924Z,19.67
2018-05-18T15:53:31.580Z,20.43
2018-05-18T15:55:59.970Z,22.77
2018-05-18T15:58:28.688Z,20.53
2018-05-18T16:00:57.071Z,24.13
2018-05-18T16:03:28.132Z,23.17
2018-05-18T16:05:56.838Z,24.90
2018-05-18T16:08:25.210Z,25.20
2018-05-18T16:10:53.588Z,22.73
2018-05-18T16:13:22.063Z,18.27
2018-05-18T16:15:50.418Z,24.50
2018-05-18T16:18:18.758Z,23.87
2018-05-18T16:20:47.174Z,33.27
2018-05-18T16:23:15.599Z,21.45
2018-05-18T16:25:44.079Z,22.03
2018-05-18T16:28:12.445Z,20.03
2018-05-18T16:30:41.764Z,23.53
2018-05-18T16:33:10.064Z,18.75
2018-05-18T16:35:39.777Z,20.93
2018-05-18T16:38:09.372Z,23.60
2018-05-18T16:40:38.568Z,22.17
2018-05-18T16:43:06.972Z,18.77
2018-05-18T16:45:35.422Z,24.40
2018-05-18T16:48:03.862Z,21.50
2018-05-18T16:50:32.160Z,21.50
2018-05-18T16:53:00.474Z,18.50
2018-05-18T16:55:30.738Z,30.13
2018-05-18T16:57:59.242Z,24.50
2018-05-18T17:00:27.580Z,25.58
2018-05-18T17:02:55.961Z,28.27
2018-05-18T17:05:24.259Z,29.50
2018-05-18T17:07:52.578Z,32.43
2018-05-18T17:10:20.989Z,30.35
2018-05-18T17:12:50.232Z,34.27
2018-05-18T17:15:19.025Z,29.73
2018-05-18T17:17:47.791Z,35.27
2018-05-18T17:20:16.262Z,32.20
2018-05-18T17:22:44.795Z,29.57
2018-05-18T17:25:13.083Z,33.60
2018-05-18T17:27:41.371Z,32.43
2018-05-18T17:30:10.127Z,32.30
2018-05-18T17:32:38.544Z,30.47
2018-05-18T17:35:08.063Z,30.97
2018-05-18T17:37:36.533Z,35.30
2018-05-18T17:40:05.607Z,32.80
2018-05-18T17:42:33.951Z,31.47
2018-05-18T17:45:02.364Z,32.90
2018-05-18T17:47:30.813Z,33.43
2018-05-18T17:49:59.303Z,32.77
2018-05-18T17:52:27.842Z,31.67
2018-05-18T17:54:56.319Z,31.20
2018-05-18T17:57:24.741Z,32.10
2018-05-18T17:59:53.076Z,36.03
2018-05-18T18:02:21.533Z,35.20
2018-05-18T18:04:49.893Z,37.63
2018-05-18T18:07:18.402Z,35.70
2018-05-18T18:09:46.679Z,38.10
2018-05-18T18:12:15.007Z,37.03
2018-05-18T18:14:45.125Z,34.33
2018-05-18T18:17:13.563Z,35.50
2018-05-18T18:19:42.404Z,43.37
2018-05-18T18:22:10.720Z,37.63
2018-05-18T18:24:39.128Z,38.97
2018-05-18T18:27:07.500Z,37.47
2018-05-18T18:29:35.770Z,35.97
2018-05-18T18:32:05.158Z,38.74
2018-05-18T18:34:34.406Z,36.67
2018-05-18T18:37:02.746Z,41.90
2018-05-18T18:39:31.190Z,43.50
2018-05-18T18:41:59.498Z,41.90
2018-05-18T18:44:27.788Z,36.00
2018-05-18T18:46:56.098Z,39.07
2018-05-18T18:49:24.956Z,35.57
2018-05-18T18:51:53.343Z,61.20
2018-05-18T18:54:24.047Z,70.80
2018-05-18T18:56:52.356Z,61.93
2018-05-18T18:59:20.784Z,55.97
2018-05-18T19:01:49.455Z,47.93
2018-05-18T19:04:18.642Z,52.70
2018-05-18T19:06:46.961Z,68.97
2018-05-18T19:09:15.263Z,43.22
2018-05-18T19:11:43.542Z,44.13
2018-05-18T19:14:11.963Z,39.45
2018-05-18T19:16:40.394Z,40.10
2018-05-18T19:19:08.709Z,45.37
2018-05-18T19:21:37.047Z,51.60
2018-05-18T19:24:05.638Z,34.90
2018-05-18T19:26:34.287Z,35.53
2018-05-18T19:29:02.698Z,33.97
2018-05-18T19:31:31.128Z,35.73
2018-05-18T19:34:02.735Z,34.87
2018-05-18T19:36:32.411Z,39.55
2018-05-18T19:39:02.887Z,123.67
2018-05-18T19:41:35.734Z,88.23
2018-05-18T19:44:08.225Z,45.73
2018-05-18T19:46:37.495Z,44.47
2018-05-18T19:49:10.779Z,36.37
2018-05-18T19:51:40.370Z,42.73
2018-05-18T19:54:08.759Z,28.10
2018-05-18T19:56:37.557Z,46.87
2018-05-18T19:59:07.119Z,28.20
2018-05-18T20:01:36.255Z,36.93
2018-05-18T20:04:04.634Z,28.93
2018-05-18T20:06:32.947Z,29.70
2018-05-18T20:09:01.272Z,30.80
2018-05-18T20:11:29.610Z,29.13
2018-05-18T20:13:57.908Z,32.93
2018-05-18T20:16:26.272Z,76.57
2018-05-18T20:18:54.613Z,48.87
2018-05-18T20:21:22.950Z,36.55
2018-05-18T20:23:52.110Z,37.40
2018-05-18T20:26:21.240Z,33.47
2018-05-18T20:28:55.374Z,86.40
2018-05-18T20:31:24.134Z,41.97
2018-05-18T20:33:52.505Z,28.83
2018-05-18T20:36:20.873Z,30.12
2018-05-18T20:38:49.175Z,31.70
2018-05-18T20:41:17.483Z,31.75
2018-05-18T20:43:46.644Z,99.43
2018-05-18T20:46:14.957Z,36.30
2018-05-18T20:48:43.294Z,31.50
2018-05-18T20:51:11.735Z,29.95
2018-05-18T20:53:40.057Z,34.60
2018-05-18T20:56:08.342Z,67.33
2018-05-18T20:58:36.791Z,52.03
2018-05-18T21:01:05.812Z,35.95
2018-05-18T21:03:34.277Z,69.53
2018-05-18T21:06:02.498Z,139.30
2018-05-18T21:08:31.372Z,56.07
2018-05-18T21:10:59.720Z,47.63
2018-05-18T21:13:28.051Z,32.33
2018-05-18T21:15:56.544Z,31.73
2018-05-18T21:18:24.901Z,31.02
2018-05-18T21:20:53.276Z,27.47
2018-05-18T21:23:21.717Z,25.03
2018-05-18T21:25:50.435Z,29.93
2018-05-18T21:28:18.767Z,25.08
2018-05-18T21:30:47.079Z,26.83
2018-05-18T21:33:15.358Z,28.38
2018-05-18T21:35:44.097Z,24.07
2018-05-18T21:38:13.907Z,27.18
2018-05-18T21:40:42.257Z,27.10
2018-05-18T21:43:10.530Z,26.67
2018-05-18T21:45:38.847Z,24.23
2018-05-18T21:48:07.129Z,27.00
2018-05-18T21:50:35.460Z,28.70
2018-05-18T21:53:03.734Z,23.67
2018-05-18T21:55:32.151Z,30.70
2018-05-18T21:58:00.432Z,25.77
2018-05-18T22:00:28.788Z,28.87
2018-05-18T22:02:57.127Z,24.93
2018-05-18T22:05:25.437Z,24.50
2018-05-18T22:07:53.727Z,27.27
2018-05-18T22:10:22.019Z,26.87
2018-05-18T22:12:50.335Z,25.03
2018-05-18T22:15:18.632Z,27.03
2018-05-18T22:17:46.920Z,28.17
2018-05-18T22:20:15.846Z,30.93
2018-05-18T22:22:44.209Z,28.97
2018-05-18T22:25:12.644Z,30.10
2018-05-18T22:27:40.930Z,30.20
2018-05-18T22:30:09.355Z,32.45
2018-05-18T22:32:53.950Z,27.00
2018-05-18T22:35:22.230Z,29.47
2018-05-18T22:37:50.557Z,29.50
2018-05-18T22:40:18.831Z,28.17
2018-05-18T22:42:47.111Z,26.83
2018-05-18T22:45:15.475Z,35.30
2018-05-18T22:47:43.780Z,25.47
2018-05-18T22:50:12.550Z,32.20
2018-05-18T22:52:40.919Z,25.73
2018-05-18T22:55:09.269Z,30.20
2018-05-18T22:57:37.610Z,26.83
2018-05-18T23:00:05.915Z,26.77
2018-05-18T23:02:34.326Z,29.03
2018-05-18T23:05:02.709Z,29.20
2018-05-18T23:07:30.995Z,26.67
2018-05-18T23:09:59.284Z,26.70
2018-05-18T23:12:27.647Z,29.67
2018-05-18T23:14:56.012Z,31.60
2018-05-18T23:17:25.196Z,25.90
2018-05-18T23:19:53.535Z,29.70
2018-05-18T23:22:21.858Z,27.42
2018-05-18T23:24:50.234Z,30.43
2018-05-18T23:27:18.544Z,26.33
2018-05-18T23:29:46.891Z,26.93
2018-05-18T23:32:15.213Z,27.53
2018-05-18T23:34:43.634Z,25.63
2018-05-18T23:37:11.944Z,25.85
2018-05-18T23:39:40.258Z,25.93
2018-05-18T23:42:08.535Z,24.87
2018-05-18T23:44:36.877Z,26.10
2018-05-18T23:47:05.563Z,25.50
2018-05-18T23:49:33.907Z,23.37
2018-05-18T23:52:02.203Z,27.73
2018-05-18T23:54:30.509Z,25.80
2018-05-18T23:56:58.798Z,27.00
2018-05-18T23:59:27.117Z,23.57
